sensor_id;sensor_type;location;lat;lon;timestamp;P1;durP1;ratioP1;P2;durP2;ratioP2
23670;SDS011;12012;51.998;7.614;2024-03-23T00:54:14;13.88;;;4.82;;
23670;SDS011;12012;51.998;7.614;2024-03-23T00:56:40;10.30;;;3.70;;
23670;SDS011;12012;51.998;7.614;2024-03-23T00:59:06;14.90;;;4.10;;
23670;SDS011;12012;51.998;7.614;2024-03-23T01:01:31;10.43;;;3.35;;
23670;SDS011;12012;51.998;7.614;2024-03-23T01:03:57;13.93;;;3.95;;
23670;SDS011;12012;51.998;7.614;2024-03-23T01:06:22;11.82;;;3.78;;
23670;SDS011;12012;51.998;7.614;2024-03-23T01:08:48;12.82;;;3.50;;
23670;SDS011;12012;51.998;7.614;2024-03-23T01:11:13;12.00;;;3.35;;
23670;SDS011;12012;51.998;7.614;2024-03-23T01:13:39;9.95;;;3.50;;
23670;SDS011;12012;51.998;7.614;2024-03-23T01:16:05;14.73;;;4.15;;
23670;SDS011;12012;51.998;7.614;2024-03-23T01:18:30;11.63;;;4.22;;
23670;SDS011;12012;51.998;7.614;2024-03-23T01:20:56;14.80;;;4.35;;
23670;SDS011;12012;51.998;7.614;2024-03-23T01:23:21;16.00;;;4.68;;
23670;SDS011;12012;51.998;7.614;2024-03-23T01:25:53;12.38;;;5.05;;
23670;SDS011;12012;51.998;7.614;2024-03-23T01:28:20;12.82;;;4.30;;
23670;SDS011;12012;51.998;7.614;2024-03-23T01:30:46;13.65;;;3.83;;
23670;SDS011;12012;51.998;7.614;2024-03-23T01:33:11;10.32;;;4.03;;
23670;SDS011;12012;51.998;7.614;2024-03-23T01:35:37;23.10;;;4.80;;
23670;SDS011;12012;51.998;7.614;2024-03-23T01:38:03;13.93;;;4.43;;
23670;SDS011;12012;51.998;7.614;2024-03-23T01:40:28;12.10;;;4.45;;
23670;SDS011;12012;51.998;7.614;2024-03-23T01:43:04;21.25;;;5.40;;
23670;SDS011;12012;51.998;7.614;2024-03-23T01:45:32;14.40;;;4.15;;
23670;SDS011;12012;51.998;7.614;2024-03-23T01:47:59;16.65;;;4.57;;
23670;SDS011;12012;51.998;7.614;2024-03-23T01:50:25;18.58;;;4.80;;
23670;SDS011;12012;51.998;7.614;2024-03-23T01:52:51;12.77;;;4.15;;
23670;SDS011;12012;51.998;7.614;2024-03-23T01:55:17;13.50;;;4.25;;
23670;SDS011;12012;51.998;7.614;2024-03-23T01:57:42;17.38;;;4.60;;
23670;SDS011;12012;51.998;7.614;2024-03-23T02:00:08;16.30;;;3.90;;
23670;SDS011;12012;51.998;7.614;2024-03-23T02:02:37;16.30;;;4.70;;
23670;SDS011;12012;51.998;7.614;2024-03-23T02:05:12;17.10;;;4.75;;
23670;SDS011;12012;51.998;7.614;2024-03-23T02:07:38;12.32;;;4.63;;
23670;SDS011;12012;51.998;7.614;2024-03-23T02:10:08;16.60;;;4.57;;
23670;SDS011;12012;51.998;7.614;2024-03-23T02:12:35;11.30;;;4.78;;
23670;SDS011;12012;51.998;7.614;2024-03-23T02:15:02;18.63;;;5.93;;
23670;SDS011;12012;51.998;7.614;2024-03-23T02:17:30;15.75;;;4.43;;
23670;SDS011;12012;51.998;7.614;2024-03-23T02:19:57;16.30;;;5.05;;
23670;SDS011;12012;51.998;7.614;2024-03-23T02:22:22;17.25;;;5.60;;
23670;SDS011;12012;51.998;7.614;2024-03-23T02:24:48;18.25;;;5.80;;
23670;SDS011;12012;51.998;7.614;2024-03-23T02:27:13;17.40;;;6.05;;
23670;SDS011;12012;51.998;7.614;2024-03-23T02:29:39;14.65;;;5.82;;
23670;SDS011;12012;51.998;7.614;2024-03-23T02:32:05;20.15;;;6.10;;
23670;SDS011;12012;51.998;7.614;2024-03-23T02:34:30;20.20;;;5.80;;
23670;SDS011;12012;51.998;7.614;2024-03-23T02:36:56;19.30;;;5.63;;
23670;SDS011;12012;51.998;7.614;2024-03-23T02:39:22;21.50;;;6.47;;
23670;SDS011;12012;51.998;7.614;2024-03-23T02:41:47;18.70;;;6.07;;
23670;SDS011;12012;51.998;7.614;2024-03-23T02:44:13;17.33;;;5.22;;
23670;SDS011;12012;51.998;7.614;2024-03-23T02:46:39;18.60;;;6.10;;
23670;SDS011;12012;51.998;7.614;2024-03-23T02:49:04;24.00;;;6.38;;
23670;SDS011;12012;51.998;7.614;2024-03-23T02:51:30;17.15;;;5.95;;
23670;SDS011;12012;51.998;7.614;2024-03-23T02:53:56;24.83;;;6.45;;
23670;SDS011;12012;51.998;7.614;2024-03-23T02:56:22;23.58;;;7.43;;
23670;SDS011;12012;51.998;7.614;2024-03-23T02:58:47;21.85;;;6.18;;
23670;SDS011;12012;51.998;7.614;2024-03-23T03:01:13;18.45;;;7.07;;
23670;SDS011;12012;51.998;7.614;2024-03-23T03:03:39;17.52;;;6.07;;
23670;SDS011;12012;51.998;7.614;2024-03-23T03:06:04;25.27;;;6.80;;
23670;SDS011;12012;51.998;7.614;2024-03-23T03:08:30;17.42;;;6.60;;
23670;SDS011;12012;51.998;7.614;2024-03-23T03:10:55;18.48;;;6.93;;
23670;SDS011;12012;51.998;7.614;2024-03-23T03:13:21;24.50;;;6.75;;
23670;SDS011;12012;51.998;7.614;2024-03-23T03:15:46;21.10;;;6.72;;
23670;SDS011;12012;51.998;7.614;2024-03-23T03:18:12;24.73;;;7.18;;
23670;SDS011;12012;51.998;7.614;2024-03-23T03:20:38;23.42;;;6.97;;
23670;SDS011;12012;51.998;7.614;2024-03-23T03:23:04;22.65;;;6.90;;
23670;SDS011;12012;51.998;7.614;2024-03-23T03:25:30;26.98;;;8.52;;
23670;SDS011;12012;51.998;7.614;2024-03-23T03:27:56;23.67;;;7.82;;
23670;SDS011;12012;51.998;7.614;2024-03-23T03:30:21;24.63;;;7.72;;
23670;SDS011;12012;51.998;7.614;2024-03-23T03:32:47;23.30;;;7.90;;
23670;SDS011;12012;51.998;7.614;2024-03-23T03:35:12;26.42;;;8.07;;
23670;SDS011;12012;51.998;7.614;2024-03-23T03:37:38;23.55;;;8.48;;
23670;SDS011;12012;51.998;7.614;2024-03-23T03:40:04;22.10;;;7.15;;
23670;SDS011;12012;51.998;7.614;2024-03-23T03:42:30;24.85;;;8.30;;
23670;SDS011;12012;51.998;7.614;2024-03-23T03:44:56;17.45;;;7.20;;
23670;SDS011;12012;51.998;7.614;2024-03-23T03:47:21;17.98;;;6.90;;
23670;SDS011;12012;51.998;7.614;2024-03-23T03:49:47;22.50;;;8.57;;
23670;SDS011;12012;51.998;7.614;2024-03-23T03:52:12;21.80;;;7.68;;
23670;SDS011;12012;51.998;7.614;2024-03-23T03:54:38;30.17;;;9.10;;
23670;SDS011;12012;51.998;7.614;2024-03-23T03:57:04;25.95;;;8.98;;
23670;SDS011;12012;51.998;7.614;2024-03-23T03:59:29;29.60;;;9.20;;
23670;SDS011;12012;51.998;7.614;2024-03-23T04:01:55;23.63;;;7.97;;
23670;SDS011;12012;51.998;7.614;2024-03-23T04:04:20;23.13;;;8.63;;
23670;SDS011;12012;51.998;7.614;2024-03-23T04:06:47;24.58;;;8.35;;
23670;SDS011;12012;51.998;7.614;2024-03-23T04:09:13;32.63;;;10.45;;
23670;SDS011;12012;51.998;7.614;2024-03-23T04:11:40;26.73;;;10.35;;
23670;SDS011;12012;51.998;7.614;2024-03-23T04:14:05;28.52;;;10.63;;
23670;SDS011;12012;51.998;7.614;2024-03-23T04:16:34;30.55;;;11.32;;
23670;SDS011;12012;51.998;7.614;2024-03-23T04:19:00;38.92;;;12.90;;
23670;SDS011;12012;51.998;7.614;2024-03-23T04:21:26;36.40;;;11.75;;
23670;SDS011;12012;51.998;7.614;2024-03-23T04:23:52;35.72;;;11.63;;
23670;SDS011;12012;51.998;7.614;2024-03-23T04:26:17;52.33;;;14.35;;
23670;SDS011;12012;51.998;7.614;2024-03-23T04:28:43;51.45;;;13.68;;
23670;SDS011;12012;51.998;7.614;2024-03-23T04:31:09;41.22;;;12.93;;
23670;SDS011;12012;51.998;7.614;2024-03-23T04:33:34;48.10;;;13.38;;
23670;SDS011;12012;51.998;7.614;2024-03-23T04:36:00;43.22;;;13.25;;
23670;SDS011;12012;51.998;7.614;2024-03-23T04:38:26;35.55;;;13.05;;
23670;SDS011;12012;51.998;7.614;2024-03-23T04:40:55;40.53;;;13.65;;
23670;SDS011;12012;51.998;7.614;2024-03-23T04:43:21;43.08;;;12.90;;
23670;SDS011;12012;51.998;7.614;2024-03-23T04:45:47;37.08;;;12.88;;
23670;SDS011;12012;51.998;7.614;2024-03-23T04:48:13;46.90;;;13.70;;
23670;SDS011;12012;51.998;7.614;2024-03-23T04:50:38;46.22;;;14.40;;
23670;SDS011;12012;51.998;7.614;2024-03-23T04:53:05;40.35;;;13.63;;
23670;SDS011;12012;51.998;7.614;2024-03-23T04:55:31;43.42;;;14.02;;
23670;SDS011;12012;51.998;7.614;2024-03-23T04:57:56;43.88;;;13.50;;
23670;SDS011;12012;51.998;7.614;2024-03-23T05:00:22;43.67;;;15.25;;
23670;SDS011;12012;51.998;7.614;2024-03-23T05:02:48;44.50;;;14.40;;
23670;SDS011;12012;51.998;7.614;2024-03-23T05:05:14;48.10;;;14.77;;
23670;SDS011;12012;51.998;7.614;2024-03-23T05:07:39;48.40;;;15.02;;
23670;SDS011;12012;51.998;7.614;2024-03-23T05:10:06;43.95;;;14.82;;
23670;SDS011;12012;51.998;7.614;2024-03-23T05:12:36;49.13;;;15.65;;
23670;SDS011;12012;51.998;7.614;2024-03-23T05:15:05;46.35;;;16.52;;
23670;SDS011;12012;51.998;7.614;2024-03-23T05:17:32;53.35;;;16.70;;
23670;SDS011;12012;51.998;7.614;2024-03-23T05:19:58;54.70;;;17.80;;
23670;SDS011;12012;51.998;7.614;2024-03-23T05:22:24;58.92;;;17.13;;
23670;SDS011;12012;51.998;7.614;2024-03-23T05:24:50;51.00;;;17.23;;
23670;SDS011;12012;51.998;7.614;2024-03-23T05:27:15;52.13;;;18.10;;
23670;SDS011;12012;51.998;7.614;2024-03-23T05:29:41;54.97;;;19.52;;
23670;SDS011;12012;51.998;7.614;2024-03-23T05:32:07;51.60;;;18.75;;
23670;SDS011;12012;51.998;7.614;2024-03-23T05:34:32;56.95;;;18.90;;
23670;SDS011;12012;51.998;7.614;2024-03-23T05:36:58;51.08;;;18.17;;
23670;SDS011;12012;51.998;7.614;2024-03-23T05:39:24;56.47;;;19.67;;
23670;SDS011;12012;51.998;7.614;2024-03-23T05:41:49;51.50;;;20.45;;
23670;SDS011;12012;51.998;7.614;2024-03-23T05:44:15;55.65;;;20.85;;
23670;SDS011;12012;51.998;7.614;2024-03-23T05:46:41;56.65;;;19.80;;
23670;SDS011;12012;51.998;7.614;2024-03-23T05:49:07;49.47;;;19.27;;
23670;SDS011;12012;51.998;7.614;2024-03-23T05:51:34;50.72;;;18.85;;
23670;SDS011;12012;51.998;7.614;2024-03-23T05:53:59;53.90;;;20.38;;
23670;SDS011;12012;51.998;7.614;2024-03-23T05:56:26;48.30;;;20.98;;
23670;SDS011;12012;51.998;7.614;2024-03-23T05:58:51;57.97;;;21.13;;
23670;SDS011;12012;51.998;7.614;2024-03-23T06:01:17;54.05;;;20.15;;
23670;SDS011;12012;51.998;7.614;2024-03-23T06:03:42;50.70;;;20.70;;
23670;SDS011;12012;51.998;7.614;2024-03-23T06:06:09;49.78;;;20.17;;
23670;SDS011;12012;51.998;7.614;2024-03-23T06:08:37;58.63;;;20.55;;
23670;SDS011;12012;51.998;7.614;2024-03-23T06:11:04;60.88;;;21.55;;
23670;SDS011;12012;51.998;7.614;2024-03-23T06:13:32;56.75;;;22.52;;
23670;SDS011;12012;51.998;7.614;2024-03-23T06:15:59;64.68;;;21.65;;
23670;SDS011;12012;51.998;7.614;2024-03-23T06:18:25;48.20;;;20.60;;
23670;SDS011;12012;51.998;7.614;2024-03-23T06:20:50;56.97;;;22.52;;
23670;SDS011;12012;51.998;7.614;2024-03-23T06:23:16;55.00;;;22.55;;
23670;SDS011;12012;51.998;7.614;2024-03-23T06:25:44;52.22;;;22.60;;
23670;SDS011;12012;51.998;7.614;2024-03-23T06:28:10;61.03;;;23.58;;
23670;SDS011;12012;51.998;7.614;2024-03-23T06:30:36;50.45;;;21.48;;
23670;SDS011;12012;51.998;7.614;2024-03-23T06:33:01;46.15;;;22.05;;
23670;SDS011;12012;51.998;7.614;2024-03-23T06:35:27;52.42;;;22.65;;
23670;SDS011;12012;51.998;7.614;2024-03-23T06:37:52;48.83;;;22.38;;
23670;SDS011;12012;51.998;7.614;2024-03-23T06:40:18;43.58;;;20.15;;
23670;SDS011;12012;51.998;7.614;2024-03-23T06:42:43;46.90;;;21.67;;
23670;SDS011;12012;51.998;7.614;2024-03-23T06:45:09;47.47;;;20.30;;
23670;SDS011;12012;51.998;7.614;2024-03-23T06:47:35;44.65;;;20.70;;
23670;SDS011;12012;51.998;7.614;2024-03-23T06:50:00;51.58;;;20.38;;
23670;SDS011;12012;51.998;7.614;2024-03-23T06:52:27;47.47;;;19.92;;
23670;SDS011;12012;51.998;7.614;2024-03-23T06:54:53;44.13;;;20.15;;
23670;SDS011;12012;51.998;7.614;2024-03-23T06:57:21;51.88;;;19.90;;
23670;SDS011;12012;51.998;7.614;2024-03-23T06:59:56;47.97;;;18.70;;
23670;SDS011;12012;51.998;7.614;2024-03-23T07:02:22;41.53;;;18.15;;
23670;SDS011;12012;51.998;7.614;2024-03-23T07:04:48;38.75;;;17.42;;
23670;SDS011;12012;51.998;7.614;2024-03-23T07:07:13;39.25;;;17.10;;
23670;SDS011;12012;51.998;7.614;2024-03-23T07:09:39;34.25;;;16.77;;
23670;SDS011;12012;51.998;7.614;2024-03-23T07:12:04;37.72;;;15.15;;
23670;SDS011;12012;51.998;7.614;2024-03-23T07:14:30;39.92;;;15.32;;
23670;SDS011;12012;51.998;7.614;2024-03-23T07:16:56;33.58;;;13.88;;
23670;SDS011;12012;51.998;7.614;2024-03-23T07:19:22;34.97;;;14.68;;
23670;SDS011;12012;51.998;7.614;2024-03-23T07:21:48;24.70;;;11.48;;
23670;SDS011;12012;51.998;7.614;2024-03-23T07:24:14;29.52;;;11.57;;
23670;SDS011;12012;51.998;7.614;2024-03-23T07:26:40;30.20;;;11.88;;
23670;SDS011;12012;51.998;7.614;2024-03-23T07:29:06;32.67;;;11.82;;
23670;SDS011;12012;51.998;7.614;2024-03-23T07:31:31;27.38;;;10.50;;
23670;SDS011;12012;51.998;7.614;2024-03-23T07:33:57;23.83;;;9.48;;
23670;SDS011;12012;51.998;7.614;2024-03-23T07:36:23;22.15;;;9.60;;
23670;SDS011;12012;51.998;7.614;2024-03-23T07:38:48;25.63;;;9.98;;
23670;SDS011;12012;51.998;7.614;2024-03-23T07:41:20;28.92;;;10.23;;
23670;SDS011;12012;51.998;7.614;2024-03-23T07:43:46;23.42;;;8.52;;
23670;SDS011;12012;51.998;7.614;2024-03-23T07:46:13;22.20;;;8.43;;
23670;SDS011;12012;51.998;7.614;2024-03-23T07:48:39;26.73;;;8.93;;
23670;SDS011;12012;51.998;7.614;2024-03-23T07:53:37;23.25;;;7.10;;
23670;SDS011;12012;51.998;7.614;2024-03-23T07:56:07;21.48;;;7.80;;
23670;SDS011;12012;51.998;7.614;2024-03-23T07:58:36;21.67;;;6.72;;
23670;SDS011;12012;51.998;7.614;2024-03-23T08:01:04;19.10;;;6.75;;
23670;SDS011;12012;51.998;7.614;2024-03-23T08:03:32;15.10;;;6.22;;
23670;SDS011;12012;51.998;7.614;2024-03-23T08:06:06;20.77;;;6.25;;
23670;SDS011;12012;51.998;7.614;2024-03-23T08:08:32;19.00;;;6.32;;
23670;SDS011;12012;51.998;7.614;2024-03-23T08:10:58;19.02;;;6.32;;
23670;SDS011;12012;51.998;7.614;2024-03-23T08:13:23;22.13;;;5.90;;
23670;SDS011;12012;51.998;7.614;2024-03-23T08:15:49;19.90;;;5.75;;
23670;SDS011;12012;51.998;7.614;2024-03-23T08:18:14;18.85;;;6.07;;
23670;SDS011;12012;51.998;7.614;2024-03-23T08:20:42;19.17;;;5.25;;
23670;SDS011;12012;51.998;7.614;2024-03-23T08:23:08;22.92;;;6.38;;
23670;SDS011;12012;51.998;7.614;2024-03-23T08:25:34;17.58;;;5.68;;
23670;SDS011;12012;51.998;7.614;2024-03-23T08:28:00;22.20;;;6.20;;
23670;SDS011;12012;51.998;7.614;2024-03-23T08:30:26;15.55;;;5.55;;
23670;SDS011;12012;51.998;7.614;2024-03-23T08:32:53;18.55;;;5.70;;
23670;SDS011;12012;51.998;7.614;2024-03-23T08:35:19;13.50;;;5.28;;
23670;SDS011;12012;51.998;7.614;2024-03-23T08:37:45;19.80;;;4.93;;
23670;SDS011;12012;51.998;7.614;2024-03-23T08:40:10;16.15;;;4.72;;
23670;SDS011;12012;51.998;7.614;2024-03-23T08:42:36;16.13;;;3.90;;
23670;SDS011;12012;51.998;7.614;2024-03-23T08:45:02;15.70;;;3.90;;
23670;SDS011;12012;51.998;7.614;2024-03-23T08:47:27;13.38;;;4.20;;
23670;SDS011;12012;51.998;7.614;2024-03-23T08:49:53;14.70;;;4.10;;
23670;SDS011;12012;51.998;7.614;2024-03-23T08:52:19;13.63;;;3.95;;
23670;SDS011;12012;51.998;7.614;2024-03-23T08:54:45;14.13;;;4.03;;
23670;SDS011;12012;51.998;7.614;2024-03-23T08:57:11;11.40;;;3.83;;
23670;SDS011;12012;51.998;7.614;2024-03-23T08:59:37;11.48;;;3.88;;
23670;SDS011;12012;51.998;7.614;2024-03-23T09:02:03;14.90;;;4.10;;
23670;SDS011;12012;51.998;7.614;2024-03-23T09:04:29;12.45;;;5.07;;
23670;SDS011;12012;51.998;7.614;2024-03-23T09:06:55;11.13;;;4.00;;
23670;SDS011;12012;51.998;7.614;2024-03-23T09:09:20;16.23;;;4.32;;
23670;SDS011;12012;51.998;7.614;2024-03-23T09:11:46;14.75;;;4.18;;
23670;SDS011;12012;51.998;7.614;2024-03-23T09:14:11;15.10;;;4.85;;
23670;SDS011;12012;51.998;7.614;2024-03-23T09:16:37;15.57;;;4.60;;
23670;SDS011;12012;51.998;7.614;2024-03-23T09:19:02;12.18;;;4.28;;
23670;SDS011;12012;51.998;7.614;2024-03-23T09:21:28;17.20;;;4.38;;
23670;SDS011;12012;51.998;7.614;2024-03-23T09:23:53;18.60;;;4.82;;
23670;SDS011;12012;51.998;7.614;2024-03-23T09:26:19;17.48;;;4.13;;
23670;SDS011;12012;51.998;7.614;2024-03-23T09:28:45;14.63;;;4.40;;
23670;SDS011;12012;51.998;7.614;2024-03-23T09:31:13;16.00;;;4.60;;
23670;SDS011;12012;51.998;7.614;2024-03-23T09:33:40;9.52;;;3.88;;
23670;SDS011;12012;51.998;7.614;2024-03-23T09:36:06;11.68;;;4.38;;
23670;SDS011;12012;51.998;7.614;2024-03-23T09:38:32;16.25;;;4.80;;
23670;SDS011;12012;51.998;7.614;2024-03-23T09:40:58;15.45;;;5.18;;
23670;SDS011;12012;51.998;7.614;2024-03-23T09:43:24;18.00;;;4.75;;
23670;SDS011;12012;51.998;7.614;2024-03-23T09:45:50;10.73;;;4.00;;
23670;SDS011;12012;51.998;7.614;2024-03-23T09:48:17;12.07;;;4.45;;
23670;SDS011;12012;51.998;7.614;2024-03-23T09:50:43;10.93;;;3.88;;
23670;SDS011;12012;51.998;7.614;2024-03-23T09:53:13;14.18;;;3.58;;
23670;SDS011;12012;51.998;7.614;2024-03-23T09:55:42;15.85;;;4.18;;
23670;SDS011;12012;51.998;7.614;2024-03-23T09:58:12;11.95;;;4.50;;
23670;SDS011;12012;51.998;7.614;2024-03-23T10:00:39;12.90;;;4.18;;
23670;SDS011;12012;51.998;7.614;2024-03-23T10:03:04;15.50;;;4.53;;
23670;SDS011;12012;51.998;7.614;2024-03-23T10:05:31;12.18;;;3.38;;
23670;SDS011;12012;51.998;7.614;2024-03-23T10:08:16;14.55;;;4.15;;
23670;SDS011;12012;51.998;7.614;2024-03-23T10:10:44;11.52;;;3.63;;
23670;SDS011;12012;51.998;7.614;2024-03-23T10:13:11;13.57;;;3.20;;
23670;SDS011;12012;51.998;7.614;2024-03-23T10:15:48;10.98;;;3.30;;
23670;SDS011;12012;51.998;7.614;2024-03-23T10:18:23;10.60;;;3.15;;
23670;SDS011;12012;51.998;7.614;2024-03-23T10:23:31;14.80;;;3.50;;
23670;SDS011;12012;51.998;7.614;2024-03-23T10:28:55;9.40;;;3.45;;
23670;SDS011;12012;51.998;7.614;2024-03-23T10:31:30;8.57;;;3.22;;
23670;SDS011;12012;51.998;7.614;2024-03-23T10:33:56;13.32;;;2.78;;
23670;SDS011;12012;51.998;7.614;2024-03-23T10:36:22;7.70;;;2.78;;
23670;SDS011;12012;51.998;7.614;2024-03-23T10:38:50;8.60;;;2.60;;
23670;SDS011;12012;51.998;7.614;2024-03-23T10:41:17;7.50;;;2.33;;
23670;SDS011;12012;51.998;7.614;2024-03-23T10:43:44;8.40;;;2.75;;
23670;SDS011;12012;51.998;7.614;2024-03-23T10:46:11;10.05;;;2.72;;
23670;SDS011;12012;51.998;7.614;2024-03-23T10:48:37;10.35;;;3.20;;
23670;SDS011;12012;51.998;7.614;2024-03-23T10:51:03;8.02;;;2.85;;
23670;SDS011;12012;51.998;7.614;2024-03-23T10:53:30;7.95;;;2.10;;
23670;SDS011;12012;51.998;7.614;2024-03-23T10:55:58;6.13;;;2.40;;
23670;SDS011;12012;51.998;7.614;2024-03-23T10:58:26;5.50;;;2.33;;
23670;SDS011;12012;51.998;7.614;2024-03-23T11:00:59;7.30;;;2.38;;
23670;SDS011;12012;51.998;7.614;2024-03-23T11:03:37;8.88;;;2.53;;
23670;SDS011;12012;51.998;7.614;2024-03-23T11:06:06;6.72;;;2.38;;
23670;SDS011;12012;51.998;7.614;2024-03-23T11:08:38;10.77;;;2.50;;
23670;SDS011;12012;51.998;7.614;2024-03-23T11:11:17;7.63;;;2.67;;
23670;SDS011;12012;51.998;7.614;2024-03-23T11:13:48;11.05;;;2.08;;
23670;SDS011;12012;51.998;7.614;2024-03-23T11:18:54;6.03;;;2.30;;
23670;SDS011;12012;51.998;7.614;2024-03-23T11:21:59;8.07;;;1.70;;
23670;SDS011;12012;51.998;7.614;2024-03-23T11:24:26;8.30;;;2.20;;
23670;SDS011;12012;51.998;7.614;2024-03-23T11:26:52;7.78;;;2.10;;
23670;SDS011;12012;51.998;7.614;2024-03-23T11:29:18;5.38;;;1.98;;
23670;SDS011;12012;51.998;7.614;2024-03-23T11:31:47;4.70;;;1.45;;
23670;SDS011;12012;51.998;7.614;2024-03-23T11:34:13;6.63;;;1.90;;
23670;SDS011;12012;51.998;7.614;2024-03-23T11:36:40;8.07;;;1.73;;
23670;SDS011;12012;51.998;7.614;2024-03-23T11:41:52;7.38;;;1.88;;
23670;SDS011;12012;51.998;7.614;2024-03-23T11:44:18;4.60;;;1.85;;
23670;SDS011;12012;51.998;7.614;2024-03-23T11:46:44;5.57;;;1.83;;
23670;SDS011;12012;51.998;7.614;2024-03-23T11:49:20;5.90;;;1.60;;
23670;SDS011;12012;51.998;7.614;2024-03-23T11:51:49;6.80;;;2.05;;
23670;SDS011;12012;51.998;7.614;2024-03-23T11:54:19;5.63;;;2.00;;
23670;SDS011;12012;51.998;7.614;2024-03-23T11:56:55;6.13;;;2.33;;
23670;SDS011;12012;51.998;7.614;2024-03-23T11:59:38;6.28;;;1.98;;
23670;SDS011;12012;51.998;7.614;2024-03-23T12:02:11;6.45;;;1.90;;
23670;SDS011;12012;51.998;7.614;2024-03-23T12:04:39;9.80;;;2.72;;
23670;SDS011;12012;51.998;7.614;2024-03-23T12:07:09;5.68;;;2.17;;
23670;SDS011;12012;51.998;7.614;2024-03-23T12:09:39;5.55;;;2.03;;
23670;SDS011;12012;51.998;7.614;2024-03-23T12:12:15;4.85;;;1.83;;
23670;SDS011;12012;51.998;7.614;2024-03-23T12:14:42;5.53;;;2.08;;
23670;SDS011;12012;51.998;7.614;2024-03-23T12:17:09;6.00;;;2.17;;
23670;SDS011;12012;51.998;7.614;2024-03-23T12:19:39;6.20;;;2.30;;
23670;SDS011;12012;51.998;7.614;2024-03-23T12:22:09;6.20;;;1.90;;
23670;SDS011;12012;51.998;7.614;2024-03-23T12:24:35;3.70;;;1.92;;
23670;SDS011;12012;51.998;7.614;2024-03-23T12:27:01;5.00;;;1.10;;
23670;SDS011;12012;51.998;7.614;2024-03-23T12:29:31;3.05;;;1.00;;
23670;SDS011;12012;51.998;7.614;2024-03-23T12:32:00;2.60;;;1.05;;
23670;SDS011;12012;51.998;7.614;2024-03-23T12:34:26;3.10;;;1.05;;
23670;SDS011;12012;51.998;7.614;2024-03-23T12:36:52;3.72;;;1.20;;
23670;SDS011;12012;51.998;7.614;2024-03-23T12:39:18;4.40;;;1.10;;
23670;SDS011;12012;51.998;7.614;2024-03-23T12:41:45;2.20;;;0.80;;
23670;SDS011;12012;51.998;7.614;2024-03-23T12:44:11;2.13;;;1.30;;
23670;SDS011;12012;51.998;7.614;2024-03-23T12:46:38;2.97;;;1.23;;
23670;SDS011;12012;51.998;7.614;2024-03-23T12:49:04;4.90;;;1.23;;
23670;SDS011;12012;51.998;7.614;2024-03-23T12:51:30;2.65;;;1.17;;
23670;SDS011;12012;51.998;7.614;2024-03-23T12:53:56;5.15;;;1.20;;
23670;SDS011;12012;51.998;7.614;2024-03-23T12:56:21;3.72;;;1.50;;
23670;SDS011;12012;51.998;7.614;2024-03-23T12:58:47;5.50;;;1.60;;
23670;SDS011;12012;51.998;7.614;2024-03-23T13:01:20;4.65;;;1.50;;
23670;SDS011;12012;51.998;7.614;2024-03-23T13:03:49;3.90;;;1.50;;
23670;SDS011;12012;51.998;7.614;2024-03-23T13:06:15;6.40;;;2.10;;
23670;SDS011;12012;51.998;7.614;2024-03-23T13:08:43;8.52;;;2.33;;
23670;SDS011;12012;51.998;7.614;2024-03-23T13:11:12;6.70;;;2.58;;
23670;SDS011;12012;51.998;7.614;2024-03-23T13:13:39;6.82;;;2.30;;
23670;SDS011;12012;51.998;7.614;2024-03-23T13:16:05;6.57;;;2.53;;
23670;SDS011;12012;51.998;7.614;2024-03-23T13:18:31;8.68;;;2.78;;
23670;SDS011;12012;51.998;7.614;2024-03-23T13:20:57;12.50;;;3.03;;
23670;SDS011;12012;51.998;7.614;2024-03-23T13:23:23;9.50;;;2.67;;
23670;SDS011;12012;51.998;7.614;2024-03-23T13:25:49;7.90;;;2.90;;
23670;SDS011;12012;51.998;7.614;2024-03-23T13:28:19;8.48;;;2.65;;
23670;SDS011;12012;51.998;7.614;2024-03-23T13:30:55;9.02;;;3.33;;
23670;SDS011;12012;51.998;7.614;2024-03-23T13:33:22;9.23;;;2.97;;
23670;SDS011;12012;51.998;7.614;2024-03-23T13:35:51;2.70;;;1.85;;
23670;SDS011;12012;51.998;7.614;2024-03-23T13:38:18;5.70;;;1.67;;
23670;SDS011;12012;51.998;7.614;2024-03-23T13:40:56;4.18;;;1.33;;
23670;SDS011;12012;51.998;7.614;2024-03-23T13:43:24;4.93;;;1.40;;
23670;SDS011;12012;51.998;7.614;2024-03-23T13:45:53;5.22;;;1.33;;
23670;SDS011;12012;51.998;7.614;2024-03-23T13:48:21;4.07;;;1.48;;
23670;SDS011;12012;51.998;7.614;2024-03-23T13:50:47;3.30;;;1.23;;
23670;SDS011;12012;51.998;7.614;2024-03-23T13:53:22;5.72;;;1.40;;
23670;SDS011;12012;51.998;7.614;2024-03-23T13:55:48;4.70;;;1.50;;
23670;SDS011;12012;51.998;7.614;2024-03-23T13:58:15;5.60;;;1.60;;
23670;SDS011;12012;51.998;7.614;2024-03-23T14:00:40;4.40;;;1.73;;
23670;SDS011;12012;51.998;7.614;2024-03-23T14:03:09;5.57;;;1.83;;
23670;SDS011;12012;51.998;7.614;2024-03-23T14:05:36;5.85;;;1.67;;
23670;SDS011;12012;51.998;7.614;2024-03-23T14:08:03;6.75;;;1.58;;
23670;SDS011;12012;51.998;7.614;2024-03-23T14:10:33;3.30;;;1.50;;
23670;SDS011;12012;51.998;7.614;2024-03-23T14:12:58;3.63;;;1.50;;
23670;SDS011;12012;51.998;7.614;2024-03-23T14:15:28;4.70;;;1.80;;
23670;SDS011;12012;51.998;7.614;2024-03-23T14:17:55;3.90;;;1.52;;
23670;SDS011;12012;51.998;7.614;2024-03-23T14:20:21;3.92;;;2.00;;
23670;SDS011;12012;51.998;7.614;2024-03-23T14:22:48;7.20;;;1.80;;
23670;SDS011;12012;51.998;7.614;2024-03-23T14:25:14;6.22;;;1.60;;
23670;SDS011;12012;51.998;7.614;2024-03-23T14:27:39;5.20;;;1.85;;
23670;SDS011;12012;51.998;7.614;2024-03-23T14:30:05;5.68;;;1.88;;
23670;SDS011;12012;51.998;7.614;2024-03-23T14:32:31;6.35;;;1.95;;
23670;SDS011;12012;51.998;7.614;2024-03-23T14:35:01;9.27;;;1.85;;
23670;SDS011;12012;51.998;7.614;2024-03-23T14:37:26;6.30;;;1.80;;
23670;SDS011;12012;51.998;7.614;2024-03-23T14:39:52;3.85;;;1.60;;
23670;SDS011;12012;51.998;7.614;2024-03-23T14:42:18;7.50;;;1.55;;
23670;SDS011;12012;51.998;7.614;2024-03-23T14:44:43;5.22;;;1.77;;
23670;SDS011;12012;51.998;7.614;2024-03-23T14:47:09;6.93;;;1.80;;
23670;SDS011;12012;51.998;7.614;2024-03-23T14:49:34;5.40;;;1.90;;
23670;SDS011;12012;51.998;7.614;2024-03-23T14:52:01;4.75;;;1.60;;
23670;SDS011;12012;51.998;7.614;2024-03-23T14:54:26;4.53;;;1.77;;
23670;SDS011;12012;51.998;7.614;2024-03-23T14:56:52;3.80;;;1.50;;
23670;SDS011;12012;51.998;7.614;2024-03-23T14:59:17;6.00;;;2.05;;
23670;SDS011;12012;51.998;7.614;2024-03-23T15:01:44;4.95;;;1.40;;
23670;SDS011;12012;51.998;7.614;2024-03-23T15:04:10;4.20;;;1.67;;
23670;SDS011;12012;51.998;7.614;2024-03-23T15:06:35;6.18;;;1.70;;
23670;SDS011;12012;51.998;7.614;2024-03-23T15:09:01;4.90;;;1.65;;
23670;SDS011;12012;51.998;7.614;2024-03-23T15:11:27;5.57;;;1.70;;
23670;SDS011;12012;51.998;7.614;2024-03-23T15:13:52;7.30;;;2.10;;
23670;SDS011;12012;51.998;7.614;2024-03-23T15:16:18;6.70;;;1.85;;
23670;SDS011;12012;51.998;7.614;2024-03-23T15:18:46;5.05;;;1.85;;
23670;SDS011;12012;51.998;7.614;2024-03-23T15:21:12;7.53;;;2.10;;
23670;SDS011;12012;51.998;7.614;2024-03-23T15:23:40;8.43;;;2.03;;
23670;SDS011;12012;51.998;7.614;2024-03-23T15:26:08;5.57;;;2.00;;
23670;SDS011;12012;51.998;7.614;2024-03-23T15:28:34;5.45;;;1.58;;
23670;SDS011;12012;51.998;7.614;2024-03-23T15:31:07;8.88;;;2.40;;
23670;SDS011;12012;51.998;7.614;2024-03-23T15:33:34;9.20;;;1.73;;
23670;SDS011;12012;51.998;7.614;2024-03-23T15:36:03;7.22;;;1.90;;
23670;SDS011;12012;51.998;7.614;2024-03-23T15:38:31;7.32;;;2.17;;
23670;SDS011;12012;51.998;7.614;2024-03-23T15:40:57;7.85;;;2.00;;